createdAt,value
2018-11-10T00:00:41.684Z,8.30
2018-11-10T00:03:09.961Z,8.30
2018-11-10T00:05:38.236Z,8.20
2018-11-10T00:08:06.528Z,8.10
2018-11-10T00:10:34.808Z,7.90
2018-11-10T00:13:03.064Z,7.90
2018-11-10T00:15:31.403Z,8.00
2018-11-10T00:17:59.660Z,8.00
2018-11-10T00:20:27.903Z,8.00
2018-11-10T00:22:56.129Z,7.90
2018-11-10T00:25:24.715Z,7.90
2018-11-10T00:27:53.001Z,7.90
2018-11-10T00:30:21.264Z,7.90
2018-11-10T00:32:49.579Z,7.80
2018-11-10T00:35:18.269Z,7.80
2018-11-10T00:37:47.360Z,7.60
2018-11-10T00:40:16.624Z,7.60
2018-11-10T00:42:45.256Z,7.60
2018-11-10T00:45:13.508Z,7.60
2018-11-10T00:47:41.778Z,7.60
2018-11-10T00:50:10.381Z,7.60
2018-11-10T00:52:38.870Z,7.50
2018-11-10T00:55:07.395Z,7.70
2018-11-10T00:57:35.676Z,7.60
2018-11-10T01:00:04.005Z,7.50
2018-11-10T01:02:32.336Z,7.30
2018-11-10T01:05:00.641Z,7.30
2018-11-10T01:07:29.319Z,7.30
2018-11-10T01:09:57.583Z,7.30
2018-11-10T01:12:25.799Z,7.40
2018-11-10T01:14:54.069Z,7.40
2018-11-10T01:17:22.313Z,7.60
2018-11-10T01:19:50.543Z,7.60
2018-11-10T01:22:18.817Z,7.60
2018-11-10T01:24:47.078Z,7.50
2018-11-10T01:27:15.381Z,7.20
2018-11-10T01:29:43.619Z,7.00
2018-11-10T01:32:11.895Z,7.00
2018-11-10T01:34:40.130Z,7.10
2018-11-10T01:37:08.358Z,7.20
2018-11-10T01:39:36.622Z,7.10
2018-11-10T01:42:04.875Z,6.90
2018-11-10T01:44:33.139Z,6.80
2018-11-10T01:47:01.410Z,6.80
2018-11-10T01:49:29.666Z,6.80
2018-11-10T01:51:57.923Z,6.80
2018-11-10T01:54:26.211Z,6.80
2018-11-10T01:56:54.475Z,6.70
2018-11-10T01:59:22.697Z,6.60
2018-11-10T02:01:50.959Z,6.60
2018-11-10T02:04:19.233Z,6.70
2018-11-10T02:06:47.514Z,6.70
2018-11-10T02:12:08.593Z,7.10
2018-11-10T02:14:36.852Z,6.90
2018-11-10T02:17:05.132Z,6.90
2018-11-10T02:19:33.420Z,7.00
2018-11-10T02:22:01.647Z,7.00
2018-11-10T02:24:29.930Z,7.10
2018-11-10T02:26:58.528Z,7.30
2018-11-10T02:29:26.777Z,7.30
2018-11-10T02:31:55.007Z,7.50
2018-11-10T02:34:23.275Z,7.60
2018-11-10T02:36:51.542Z,7.50
2018-11-10T02:39:19.768Z,7.60
2018-11-10T02:41:48.037Z,7.80
2018-11-10T02:44:16.296Z,7.80
2018-11-10T02:46:44.530Z,7.60
2018-11-10T02:49:12.760Z,7.70
2018-11-10T02:51:41.043Z,7.70
2018-11-10T02:54:09.331Z,7.70
2018-11-10T02:56:37.725Z,7.80
2018-11-10T02:59:06.034Z,7.70
2018-11-10T03:01:34.292Z,7.60
2018-11-10T03:04:02.624Z,7.60
2018-11-10T03:06:30.895Z,7.60
2018-11-10T03:08:59.134Z,7.60
2018-11-10T03:11:27.380Z,7.70
2018-11-10T03:13:55.635Z,7.70
2018-11-10T03:16:23.920Z,7.60
2018-11-10T03:18:52.156Z,7.50
2018-11-10T03:21:20.402Z,7.50
2018-11-10T03:23:48.692Z,7.50
2018-11-10T03:26:16.931Z,7.60
2018-11-10T03:28:45.167Z,7.60
2018-11-10T03:31:13.432Z,7.60
2018-11-10T03:33:41.730Z,7.50
2018-11-10T03:36:09.997Z,7.50
2018-11-10T03:38:38.302Z,7.70
2018-11-10T03:41:06.576Z,7.90
2018-11-10T03:43:34.851Z,8.10
2018-11-10T03:46:03.134Z,8.10
2018-11-10T03:48:31.530Z,8.20
2018-11-10T03:50:59.740Z,8.20
2018-11-10T03:53:27.992Z,8.20
2018-11-10T03:55:56.257Z,8.30
2018-11-10T03:58:24.503Z,8.40
2018-11-10T04:01:02.487Z,8.40
2018-11-10T04:03:30.747Z,8.50
2018-11-10T04:05:59.075Z,8.50
2018-11-10T04:08:27.325Z,8.60
2018-11-10T04:10:55.611Z,8.60
2018-11-10T04:13:24.687Z,8.70
2018-11-10T04:15:52.912Z,8.70
2018-11-10T04:18:21.178Z,8.60
2018-11-10T04:20:49.468Z,8.70
2018-11-10T04:23:17.734Z,8.60
2018-11-10T04:25:46.025Z,8.70
2018-11-10T04:28:14.292Z,8.70
2018-11-10T04:30:42.547Z,8.70
2018-11-10T04:33:10.810Z,8.80
2018-11-10T04:35:39.056Z,8.80
2018-11-10T04:38:07.320Z,8.70
2018-11-10T04:40:35.543Z,8.80
2018-11-10T04:43:03.823Z,8.70
2018-11-10T04:45:32.396Z,8.80
2018-11-10T04:48:00.854Z,8.80
2018-11-10T04:50:29.121Z,8.80
2018-11-10T04:52:57.384Z,8.80
2018-11-10T04:55:25.688Z,8.80
2018-11-10T04:57:53.985Z,8.80
2018-11-10T05:00:22.282Z,8.90
2018-11-10T05:02:50.591Z,8.80
2018-11-10T05:05:19.130Z,8.90
2018-11-10T05:07:47.376Z,8.90
2018-11-10T05:10:15.657Z,8.80
2018-11-10T05:12:44.327Z,8.80
2018-11-10T05:15:16.187Z,8.70
2018-11-10T05:17:44.442Z,8.80
2018-11-10T05:20:12.758Z,8.90
2018-11-10T05:22:41.124Z,8.90
2018-11-10T05:25:10.318Z,8.90
2018-11-10T05:27:38.594Z,8.80
2018-11-10T05:30:07.656Z,8.90
2018-11-10T05:32:43.195Z,8.90
2018-11-10T05:35:11.521Z,8.70
2018-11-10T05:37:39.851Z,8.60
2018-11-10T05:40:09.755Z,8.50
2018-11-10T05:42:38.416Z,8.50
2018-11-10T05:45:07.009Z,8.70
2018-11-10T05:47:35.525Z,8.80
2018-11-10T05:50:04.698Z,8.90
2018-11-10T05:52:33.011Z,8.70
2018-11-10T05:55:01.565Z,8.70
2018-11-10T05:57:30.274Z,8.60
2018-11-10T05:59:58.552Z,8.70
2018-11-10T06:02:26.851Z,8.60
2018-11-10T06:04:55.131Z,8.60
2018-11-10T06:07:23.399Z,8.60
2018-11-10T06:09:51.863Z,8.60
2018-11-10T06:12:20.033Z,8.60
2018-11-10T06:14:48.333Z,8.70
2018-11-10T06:17:16.650Z,8.50
2018-11-10T06:19:44.919Z,8.50
2018-11-10T06:22:13.191Z,8.60
2018-11-10T06:24:41.500Z,8.70
2018-11-10T06:27:09.801Z,8.70
2018-11-10T06:29:39.398Z,8.70
2018-11-10T06:32:07.917Z,8.60
2018-11-10T06:34:36.243Z,8.80
2018-11-10T06:37:04.783Z,8.90
2018-11-10T06:39:33.449Z,8.90
2018-11-10T06:42:01.748Z,9.00
2018-11-10T06:44:30.036Z,9.00
2018-11-10T06:46:58.354Z,9.10
2018-11-10T06:49:26.616Z,9.20
2018-11-10T06:51:54.881Z,9.20
2018-11-10T06:54:23.210Z,9.20
2018-11-10T06:56:51.490Z,9.20
2018-11-10T06:59:19.806Z,9.30
2018-11-10T07:01:48.081Z,9.30
2018-11-10T07:04:16.488Z,9.40
2018-11-10T07:06:44.792Z,9.40
2018-11-10T07:09:13.178Z,9.40
2018-11-10T07:11:42.058Z,9.40
2018-11-10T07:14:10.421Z,9.40
2018-11-10T07:16:38.710Z,9.40
2018-11-10T07:19:07.019Z,9.40
2018-11-10T07:21:35.544Z,9.40
2018-11-10T07:24:04.095Z,9.40
2018-11-10T07:26:32.404Z,9.50
2018-11-10T07:29:00.784Z,9.50
2018-11-10T07:31:29.100Z,9.50
2018-11-10T07:33:57.743Z,9.50
2018-11-10T07:36:26.052Z,9.50
2018-11-10T07:38:54.347Z,9.60
2018-11-10T07:41:22.652Z,9.60
2018-11-10T07:43:51.317Z,9.60
2018-11-10T07:46:20.341Z,9.70
2018-11-10T07:48:48.642Z,9.70
2018-11-10T07:51:17.665Z,9.70
2018-11-10T07:53:46.135Z,9.70
2018-11-10T07:56:14.479Z,9.70
2018-11-10T07:58:42.817Z,9.60
2018-11-10T08:01:11.358Z,9.60
2018-11-10T08:03:40.478Z,9.60
2018-11-10T08:06:08.787Z,9.60
2018-11-10T08:08:37.127Z,9.60
2018-11-10T08:11:05.511Z,9.70
2018-11-10T08:13:33.823Z,9.70
2018-11-10T08:16:02.165Z,9.70
2018-11-10T08:18:30.615Z,9.70
2018-11-10T08:20:59.014Z,9.80
2018-11-10T08:23:27.320Z,9.80
2018-11-10T08:25:55.855Z,9.80
2018-11-10T08:28:24.620Z,9.80
2018-11-10T08:30:52.947Z,9.80
2018-11-10T08:33:21.312Z,9.80
2018-11-10T08:35:49.611Z,9.80
2018-11-10T08:38:17.921Z,9.90
2018-11-10T08:40:46.172Z,9.90
2018-11-10T08:43:14.478Z,9.90
2018-11-10T08:45:43.185Z,10.00
2018-11-10T08:48:11.490Z,10.00
2018-11-10T08:50:39.853Z,10.00
2018-11-10T08:53:08.201Z,10.00
2018-11-10T08:55:36.589Z,10.00
2018-11-10T08:58:05.303Z,10.00
2018-11-10T09:00:33.819Z,10.10
2018-11-10T09:03:02.065Z,10.10
2018-11-10T09:05:30.397Z,10.10
2018-11-10T09:07:58.644Z,10.10
2018-11-10T09:10:26.960Z,10.10
2018-11-10T09:12:55.491Z,10.10
2018-11-10T09:15:23.753Z,10.10
2018-11-10T09:17:52.498Z,10.10
2018-11-10T09:20:20.713Z,10.20
2018-11-10T09:22:49.039Z,10.20
2018-11-10T09:25:18.153Z,10.30
2018-11-10T09:27:46.480Z,10.30
2018-11-10T09:30:16.136Z,10.30
2018-11-10T09:32:44.617Z,10.30
2018-11-10T09:35:13.831Z,10.30
2018-11-10T09:37:42.159Z,10.30
2018-11-10T09:40:12.476Z,10.40
2018-11-10T09:42:41.263Z,10.40
2018-11-10T09:45:10.731Z,10.40
2018-11-10T09:47:39.183Z,10.40
2018-11-10T09:50:10.037Z,10.50
2018-11-10T09:52:38.321Z,10.50
2018-11-10T09:55:06.684Z,10.50
2018-11-10T09:57:35.037Z,10.50
2018-11-10T10:00:03.718Z,10.60
2018-11-10T10:02:32.391Z,10.60
2018-11-10T10:05:00.282Z,10.60
2018-11-10T10:07:28.553Z,10.60
2018-11-10T10:09:56.847Z,10.60
2018-11-10T10:12:25.128Z,10.60
2018-11-10T10:14:53.392Z,10.70
2018-11-10T10:17:21.890Z,10.70
2018-11-10T10:19:50.208Z,10.70
2018-11-10T10:22:18.504Z,10.70
2018-11-10T10:24:46.807Z,10.70
2018-11-10T10:27:15.085Z,10.80
2018-11-10T10:29:43.374Z,10.80
2018-11-10T10:32:11.667Z,10.80
2018-11-10T10:34:40.185Z,10.80
2018-11-10T10:37:08.318Z,10.90
2018-11-10T10:39:36.607Z,10.90
2018-11-10T10:42:04.948Z,10.90
2018-11-10T10:44:33.204Z,10.90
2018-11-10T10:47:01.496Z,11.00
2018-11-10T10:49:29.772Z,11.00
2018-11-10T10:51:58.552Z,10.90
2018-11-10T10:54:26.834Z,10.90
2018-11-10T10:56:55.189Z,10.90
2018-11-10T10:59:23.431Z,10.90
2018-11-10T11:01:57.291Z,10.90
2018-11-10T11:04:30.906Z,11.00
2018-11-10T11:06:59.260Z,10.90
2018-11-10T11:09:27.564Z,10.90
2018-11-10T11:11:55.863Z,10.90
2018-11-10T11:14:24.150Z,10.90
2018-11-10T11:16:52.451Z,10.90
2018-11-10T11:19:20.726Z,10.90
2018-11-10T11:21:49.428Z,10.90
2018-11-10T11:24:17.704Z,10.90
2018-11-10T11:26:45.972Z,10.90
2018-11-10T11:29:14.345Z,10.80
2018-11-10T11:31:42.574Z,10.90
2018-11-10T11:34:13.912Z,10.90
2018-11-10T11:36:42.228Z,10.90
2018-11-10T11:39:11.524Z,10.90
2018-11-10T11:41:40.214Z,10.90
2018-11-10T11:44:09.687Z,10.90
2018-11-10T11:46:38.046Z,11.00
2018-11-10T11:49:06.347Z,11.10
2018-11-10T11:51:34.633Z,11.10
2018-11-10T11:54:02.933Z,11.10
2018-11-10T11:56:31.544Z,11.10
2018-11-10T11:58:59.822Z,11.20
2018-11-10T12:01:28.132Z,11.20
2018-11-10T12:03:56.413Z,11.20
2018-11-10T12:06:24.746Z,11.20
2018-11-10T12:08:53.231Z,11.20
2018-11-10T12:11:21.560Z,11.20
2018-11-10T12:13:50.093Z,11.10
2018-11-10T12:16:27.199Z,11.10
2018-11-10T12:18:46.687Z,11.10
2018-11-10T12:21:15.212Z,11.20
2018-11-10T12:23:43.715Z,11.30
2018-11-10T12:26:12.020Z,11.20
2018-11-10T12:28:40.303Z,11.30
2018-11-10T12:31:08.629Z,11.40
2018-11-10T12:33:36.904Z,11.30
2018-11-10T12:36:05.239Z,11.40
2018-11-10T12:38:33.605Z,11.40
2018-11-10T12:41:01.860Z,11.40
2018-11-10T12:43:30.235Z,11.40
2018-11-10T12:45:58.546Z,11.50
2018-11-10T12:48:26.885Z,11.50
2018-11-10T12:50:55.272Z,11.50
2018-11-10T12:53:23.975Z,11.50
2018-11-10T12:55:52.286Z,11.40
2018-11-10T12:58:20.541Z,11.40
2018-11-10T13:00:48.847Z,11.40
2018-11-10T13:03:17.109Z,11.50
2018-11-10T13:05:45.414Z,11.40
2018-11-10T13:08:13.769Z,11.50
2018-11-10T13:10:42.065Z,11.40
2018-11-10T13:13:10.313Z,11.40
2018-11-10T13:15:38.625Z,11.40
2018-11-10T13:18:06.929Z,11.50
2018-11-10T13:20:35.227Z,11.50
2018-11-10T13:23:03.855Z,11.50
2018-11-10T13:25:32.152Z,11.60
2018-11-10T13:28:00.698Z,11.60
2018-11-10T13:30:29.029Z,11.60
2018-11-10T13:32:57.349Z,11.60
2018-11-10T13:35:25.688Z,11.60
2018-11-10T13:37:54.063Z,11.70
2018-11-10T13:40:22.358Z,11.70
2018-11-10T13:42:50.648Z,11.80
2018-11-10T13:45:18.949Z,11.70
2018-11-10T13:47:47.277Z,11.80
2018-11-10T13:50:15.968Z,11.70
2018-11-10T13:52:44.867Z,11.70
2018-11-10T13:55:13.322Z,11.80
2018-11-10T13:57:42.017Z,11.80
2018-11-10T14:00:12.987Z,11.70
2018-11-10T14:02:41.385Z,11.70
2018-11-10T14:05:11.045Z,11.70
2018-11-10T14:07:39.641Z,11.70
2018-11-10T14:10:09.659Z,11.70
2018-11-10T14:12:38.086Z,11.60
2018-11-10T14:15:06.523Z,11.70
2018-11-10T14:17:35.218Z,11.70
2018-11-10T14:20:04.213Z,11.60
2018-11-10T14:22:32.695Z,11.60
2018-11-10T14:25:01.114Z,11.70
2018-11-10T14:27:29.427Z,11.70
2018-11-10T14:29:57.756Z,11.70
2018-11-10T14:32:26.070Z,11.70
2018-11-10T14:34:54.314Z,11.60
2018-11-10T14:37:22.631Z,11.70
2018-11-10T14:39:50.893Z,11.70
2018-11-10T14:42:19.215Z,11.60
2018-11-10T14:44:47.912Z,11.60
2018-11-10T14:47:16.574Z,11.60
2018-11-10T14:49:44.880Z,11.70
2018-11-10T14:52:13.267Z,11.70
2018-11-10T14:54:41.592Z,11.70
2018-11-10T14:57:09.942Z,11.70
2018-11-10T14:59:38.316Z,11.60
2018-11-10T15:02:06.679Z,11.60
2018-11-10T15:04:35.122Z,11.60
2018-11-10T15:07:03.430Z,11.60
2018-11-10T15:09:31.805Z,11.60
2018-11-10T15:12:00.214Z,11.60
2018-11-10T15:14:28.374Z,11.60
2018-11-10T15:16:56.795Z,11.60
2018-11-10T15:19:25.095Z,11.50
2018-11-10T15:21:53.413Z,11.50
2018-11-10T15:24:21.738Z,11.40
2018-11-10T15:26:50.049Z,11.30
2018-11-10T15:29:18.350Z,11.30
2018-11-10T15:31:47.066Z,11.30
2018-11-10T15:34:15.451Z,11.40
2018-11-10T15:36:43.779Z,11.40
2018-11-10T15:39:12.132Z,11.40
2018-11-10T15:41:40.419Z,11.40
2018-11-10T15:44:09.198Z,11.40
2018-11-10T15:46:37.548Z,11.40
2018-11-10T15:49:06.191Z,11.40
2018-11-10T15:51:34.539Z,11.30
2018-11-10T15:54:02.904Z,11.30
2018-11-10T15:56:31.520Z,11.40
2018-11-10T15:59:00.240Z,11.30
2018-11-10T16:01:28.521Z,11.30
2018-11-10T16:03:56.824Z,11.30
2018-11-10T16:06:25.136Z,11.40
2018-11-10T16:08:53.431Z,11.30
2018-11-10T16:11:21.772Z,11.30
2018-11-10T16:13:50.485Z,11.20
2018-11-10T16:16:18.867Z,11.30
2018-11-10T16:18:47.200Z,11.30
2018-11-10T16:21:15.841Z,11.20
2018-11-10T16:23:44.457Z,11.10
2018-11-10T16:26:12.733Z,11.20
2018-11-10T16:28:41.622Z,11.40
2018-11-10T16:31:09.856Z,11.40
2018-11-10T16:33:39.136Z,11.40
2018-11-10T16:36:07.487Z,11.30
2018-11-10T16:38:35.788Z,11.20
2018-11-10T16:41:04.110Z,11.30
2018-11-10T16:43:32.403Z,11.30
2018-11-10T16:46:00.711Z,11.40
2018-11-10T16:48:29.007Z,11.40
2018-11-10T16:50:57.308Z,11.40
2018-11-10T16:53:25.997Z,11.30
2018-11-10T16:55:54.488Z,11.30
2018-11-10T16:58:22.982Z,11.40
2018-11-10T17:00:51.319Z,11.30
2018-11-10T17:03:19.650Z,11.30
2018-11-10T17:05:47.938Z,11.20
2018-11-10T17:08:16.247Z,11.20
2018-11-10T17:10:44.534Z,11.30
2018-11-10T17:13:12.898Z,11.30
2018-11-10T17:15:41.251Z,11.30
2018-11-10T17:18:09.531Z,11.30
2018-11-10T17:20:37.881Z,11.40
2018-11-10T17:23:06.232Z,11.40
2018-11-10T17:25:34.813Z,11.40
2018-11-10T17:28:03.134Z,11.40
2018-11-10T17:30:31.673Z,11.50
2018-11-10T17:32:59.969Z,11.50
2018-11-10T17:35:28.242Z,11.50
2018-11-10T17:37:56.615Z,11.50
2018-11-10T17:40:25.321Z,11.40
2018-11-10T17:42:53.525Z,11.40
2018-11-10T17:45:21.862Z,11.50
2018-11-10T17:47:50.239Z,11.50
2018-11-10T17:50:18.845Z,11.40
2018-11-10T17:52:47.313Z,11.40
2018-11-10T17:55:16.327Z,11.40
2018-11-10T17:57:45.217Z,11.50
2018-11-10T18:00:13.662Z,11.60
2018-11-10T18:02:41.944Z,11.60
2018-11-10T18:05:12.276Z,11.60
2018-11-10T18:07:40.606Z,11.50
2018-11-10T18:10:10.749Z,11.50
2018-11-10T18:12:39.083Z,11.50
2018-11-10T18:15:08.860Z,11.50
2018-11-10T18:17:37.789Z,11.50
2018-11-10T18:20:06.750Z,11.60
2018-11-10T18:22:35.202Z,11.60
2018-11-10T18:25:03.516Z,11.60
2018-11-10T18:27:31.947Z,11.70
2018-11-10T18:30:00.235Z,11.70
2018-11-10T18:32:28.607Z,11.70
2018-11-10T18:34:56.834Z,11.80
2018-11-10T18:37:25.163Z,11.80
2018-11-10T18:39:53.457Z,11.80
2018-11-10T18:42:21.777Z,11.80
2018-11-10T18:44:50.165Z,11.90
2018-11-10T18:47:18.843Z,11.90
2018-11-10T18:49:47.546Z,12.00
2018-11-10T18:52:15.976Z,11.90
2018-11-10T18:54:44.335Z,12.00
2018-11-10T18:57:12.654Z,12.00
2018-11-10T18:59:40.949Z,12.00
2018-11-10T19:02:09.327Z,11.90
2018-11-10T19:04:37.683Z,11.90
2018-11-10T19:07:06.093Z,12.00
2018-11-10T19:09:34.459Z,12.00
2018-11-10T19:12:02.761Z,12.00
2018-11-10T19:14:31.044Z,12.00
2018-11-10T19:16:59.400Z,12.10
2018-11-10T19:19:27.674Z,12.00
2018-11-10T19:21:56.010Z,12.00
2018-11-10T19:24:24.315Z,12.00
2018-11-10T19:26:52.599Z,12.00
2018-11-10T19:29:20.898Z,12.00
2018-11-10T19:31:49.213Z,12.00
2018-11-10T19:34:17.510Z,12.00
2018-11-10T19:36:45.805Z,12.00
2018-11-10T19:39:14.086Z,12.00
2018-11-10T19:41:42.393Z,12.00
2018-11-10T19:44:11.275Z,12.00
2018-11-10T19:46:40.336Z,11.90
2018-11-10T19:49:09.102Z,11.90
2018-11-10T19:51:37.538Z,11.90
2018-11-10T19:54:05.671Z,11.90
2018-11-10T19:56:33.965Z,12.00
2018-11-10T19:59:02.659Z,12.00
2018-11-10T20:01:30.942Z,12.00
2018-11-10T20:03:59.577Z,12.00
2018-11-10T20:06:27.877Z,12.00
2018-11-10T20:08:56.159Z,12.00
2018-11-10T20:11:24.515Z,12.00
2018-11-10T20:13:53.137Z,12.00
2018-11-10T20:16:21.399Z,12.00
2018-11-10T20:18:49.642Z,12.00
2018-11-10T20:21:17.955Z,12.00
2018-11-10T20:23:46.339Z,12.00
2018-11-10T20:26:14.610Z,12.00
2018-11-10T20:28:43.014Z,12.00
2018-11-10T20:31:11.355Z,12.00
2018-11-10T20:33:39.755Z,12.00
2018-11-10T20:36:08.062Z,12.00
2018-11-10T20:38:36.367Z,12.00
2018-11-10T20:41:05.101Z,12.00
2018-11-10T20:43:33.386Z,12.00
2018-11-10T20:46:01.715Z,12.00
2018-11-10T20:48:30.025Z,12.00
2018-11-10T20:50:58.343Z,12.00
2018-11-10T20:53:26.674Z,12.00
2018-11-10T20:55:55.019Z,12.00
2018-11-10T20:58:23.973Z,12.00
2018-11-10T21:00:52.307Z,12.00
2018-11-10T21:03:20.638Z,12.00
2018-11-10T21:05:48.980Z,12.00
2018-11-10T21:08:17.214Z,11.90
2018-11-10T21:10:45.508Z,11.90
2018-11-10T21:13:13.837Z,11.90
2018-11-10T21:15:42.339Z,11.90
2018-11-10T21:18:10.712Z,11.90
2018-11-10T21:20:39.026Z,11.90
2018-11-10T21:23:07.830Z,11.90
2018-11-10T21:25:37.226Z,11.90
2018-11-10T21:28:12.147Z,11.90
2018-11-10T21:30:40.457Z,11.90
2018-11-10T21:33:08.815Z,11.90
2018-11-10T21:35:37.346Z,11.90
2018-11-10T21:38:05.620Z,11.90
2018-11-10T21:40:34.173Z,11.90
2018-11-10T21:43:02.473Z,11.90
2018-11-10T21:45:30.766Z,11.90
2018-11-10T21:47:59.479Z,11.90
2018-11-10T21:50:27.753Z,11.90
2018-11-10T21:52:56.034Z,11.90
2018-11-10T21:55:24.356Z,11.90
2018-11-10T21:57:54.612Z,11.90
2018-11-10T22:00:23.434Z,11.90
2018-11-10T22:02:51.934Z,11.90
2018-11-10T22:05:20.466Z,11.90
2018-11-10T22:07:48.751Z,11.90
2018-11-10T22:10:17.923Z,11.90
2018-11-10T22:12:46.435Z,11.90
2018-11-10T22:15:18.384Z,11.90
2018-11-10T22:17:46.776Z,11.80
2018-11-10T22:20:16.481Z,11.80
2018-11-10T22:22:44.790Z,11.80
2018-11-10T22:25:13.783Z,11.80
2018-11-10T22:27:44.300Z,11.80
2018-11-10T22:30:15.264Z,11.80
2018-11-10T22:32:44.044Z,11.80
2018-11-10T22:35:12.437Z,11.80
2018-11-10T22:37:40.688Z,11.80
2018-11-10T22:40:10.897Z,11.80
2018-11-10T22:42:39.701Z,11.80
2018-11-10T22:45:09.735Z,11.80
2018-11-10T22:47:38.969Z,11.80
2018-11-10T22:50:08.959Z,11.80
2018-11-10T22:52:37.399Z,11.80
2018-11-10T22:55:05.791Z,11.80
2018-11-10T22:57:34.051Z,11.90
2018-11-10T23:00:02.564Z,11.90
2018-11-10T23:02:31.155Z,11.90
2018-11-10T23:04:59.477Z,11.90
2018-11-10T23:07:28.130Z,11.90
2018-11-10T23:09:56.344Z,11.90
2018-11-10T23:12:24.581Z,12.00
2018-11-10T23:14:52.853Z,11.90
2018-11-10T23:17:21.110Z,12.00
2018-11-10T23:19:49.383Z,12.00
2018-11-10T23:22:19.729Z,12.00
2018-11-10T23:24:47.979Z,12.00
2018-11-10T23:27:16.556Z,12.00
2018-11-10T23:29:44.825Z,12.00
2018-11-10T23:32:13.073Z,12.00
2018-11-10T23:34:41.336Z,12.00
2018-11-10T23:37:09.971Z,12.00
2018-11-10T23:39:38.232Z,12.00
2018-11-10T23:42:06.471Z,12.00
2018-11-10T23:44:34.730Z,12.00
2018-11-10T23:47:03.012Z,12.00
2018-11-10T23:49:31.314Z,12.00
2018-11-10T23:51:59.607Z,12.00
2018-11-10T23:54:28.145Z,12.00
2018-11-10T23:56:56.746Z,12.00
2018-11-10T23:59:25.015Z,12.00
